sensor_id;sensor_type;location;lat;lon;timestamp;P1;durP1;ratioP1;P2;durP2;ratioP2
63218;SDS011;49320;52.512;13.448;2023-02-27T00:00:16;3.10;;;2.30;;
63218;SDS011;49320;52.512;13.448;2023-02-27T00:02:47;5.10;;;2.67;;
63218;SDS011;49320;52.512;13.448;2023-02-27T00:05:16;3.65;;;2.20;;
63218;SDS011;49320;52.512;13.448;2023-02-27T00:07:44;3.20;;;2.20;;
63218;SDS011;49320;52.512;13.448;2023-02-27T00:10:11;4.32;;;2.50;;
63218;SDS011;49320;52.512;13.448;2023-02-27T00:12:39;3.60;;;2.40;;
63218;SDS011;49320;52.512;13.448;2023-02-27T00:15:11;4.88;;;2.22;;
63218;SDS011;49320;52.512;13.448;2023-02-27T00:17:44;3.30;;;2.10;;
63218;SDS011;49320;52.512;13.448;2023-02-27T00:20:11;3.83;;;2.50;;
63218;SDS011;49320;52.512;13.448;2023-02-27T00:22:42;2.78;;;1.90;;
63218;SDS011;49320;52.512;13.448;2023-02-27T00:25:10;2.65;;;1.92;;
63218;SDS011;49320;52.512;13.448;2023-02-27T00:27:38;2.47;;;2.00;;
63218;SDS011;49320;52.512;13.448;2023-02-27T00:30:07;2.55;;;1.83;;
63218;SDS011;49320;52.512;13.448;2023-02-27T00:32:38;3.97;;;2.28;;
63218;SDS011;49320;52.512;13.448;2023-02-27T00:35:06;4.18;;;2.03;;
63218;SDS011;49320;52.512;13.448;2023-02-27T00:37:36;3.40;;;2.20;;
63218;SDS011;49320;52.512;13.448;2023-02-27T00:40:03;2.65;;;2.10;;
63218;SDS011;49320;52.512;13.448;2023-02-27T00:42:31;2.65;;;1.98;;
63218;SDS011;49320;52.512;13.448;2023-02-27T00:44:58;2.13;;;1.48;;
63218;SDS011;49320;52.512;13.448;2023-02-27T00:47:25;2.70;;;1.85;;
63218;SDS011;49320;52.512;13.448;2023-02-27T00:49:52;5.15;;;2.40;;
63218;SDS011;49320;52.512;13.448;2023-02-27T00:52:18;3.22;;;2.22;;
63218;SDS011;49320;52.512;13.448;2023-02-27T00:54:46;3.05;;;1.90;;
63218;SDS011;49320;52.512;13.448;2023-02-27T00:57:12;3.03;;;1.90;;
63218;SDS011;49320;52.512;13.448;2023-02-27T00:59:39;3.92;;;2.22;;
63218;SDS011;49320;52.512;13.448;2023-02-27T01:02:06;3.13;;;1.90;;
63218;SDS011;49320;52.512;13.448;2023-02-27T01:04:33;3.70;;;2.42;;
63218;SDS011;49320;52.512;13.448;2023-02-27T01:07:00;3.00;;;1.95;;
63218;SDS011;49320;52.512;13.448;2023-02-27T01:09:28;4.40;;;1.98;;
63218;SDS011;49320;52.512;13.448;2023-02-27T01:11:55;4.25;;;2.00;;
63218;SDS011;49320;52.512;13.448;2023-02-27T01:14:22;2.45;;;1.80;;
63218;SDS011;49320;52.512;13.448;2023-02-27T01:16:49;7.78;;;2.70;;
63218;SDS011;49320;52.512;13.448;2023-02-27T01:19:16;2.10;;;1.80;;
63218;SDS011;49320;52.512;13.448;2023-02-27T01:21:43;3.53;;;1.90;;
63218;SDS011;49320;52.512;13.448;2023-02-27T01:24:10;3.15;;;2.13;;
63218;SDS011;49320;52.512;13.448;2023-02-27T01:26:38;2.60;;;1.77;;
63218;SDS011;49320;52.512;13.448;2023-02-27T01:29:05;2.65;;;1.80;;
63218;SDS011;49320;52.512;13.448;2023-02-27T01:31:32;5.78;;;3.08;;
63218;SDS011;49320;52.512;13.448;2023-02-27T01:33:59;3.63;;;2.10;;
63218;SDS011;49320;52.512;13.448;2023-02-27T01:36:26;3.45;;;2.10;;
63218;SDS011;49320;52.512;13.448;2023-02-27T01:38:53;3.05;;;2.10;;
63218;SDS011;49320;52.512;13.448;2023-02-27T01:41:19;2.88;;;2.22;;
63218;SDS011;49320;52.512;13.448;2023-02-27T01:44:00;3.22;;;2.40;;
63218;SDS011;49320;52.512;13.448;2023-02-27T01:46:32;3.72;;;1.98;;
63218;SDS011;49320;52.512;13.448;2023-02-27T01:49:02;3.85;;;1.98;;
63218;SDS011;49320;52.512;13.448;2023-02-27T01:52:00;3.50;;;2.15;;
63218;SDS011;49320;52.512;13.448;2023-02-27T01:54:34;3.25;;;1.80;;
63218;SDS011;49320;52.512;13.448;2023-02-27T01:57:05;2.03;;;1.42;;
63218;SDS011;49320;52.512;13.448;2023-02-27T01:59:35;2.63;;;1.73;;
63218;SDS011;49320;52.512;13.448;2023-02-27T02:02:07;2.63;;;1.83;;
63218;SDS011;49320;52.512;13.448;2023-02-27T02:04:43;2.15;;;1.60;;
63218;SDS011;49320;52.512;13.448;2023-02-27T02:07:13;3.38;;;1.80;;
63218;SDS011;49320;52.512;13.448;2023-02-27T02:09:45;3.53;;;2.08;;
63218;SDS011;49320;52.512;13.448;2023-02-27T02:12:17;3.15;;;1.60;;
63218;SDS011;49320;52.512;13.448;2023-02-27T02:14:49;2.38;;;1.50;;
63218;SDS011;49320;52.512;13.448;2023-02-27T02:23:01;2.25;;;1.60;;
63218;SDS011;49320;52.512;13.448;2023-02-27T02:40:35;2.78;;;1.52;;
63218;SDS011;49320;52.512;13.448;2023-02-27T02:46:12;1.77;;;1.25;;
63218;SDS011;49320;52.512;13.448;2023-02-27T02:48:46;2.42;;;1.35;;
63218;SDS011;49320;52.512;13.448;2023-02-27T02:51:22;1.88;;;1.30;;
63218;SDS011;49320;52.512;13.448;2023-02-27T02:54:05;1.65;;;1.33;;
63218;SDS011;49320;52.512;13.448;2023-02-27T02:59:29;1.63;;;1.42;;
63218;SDS011;49320;52.512;13.448;2023-02-27T03:02:05;2.08;;;1.20;;
63218;SDS011;49320;52.512;13.448;2023-02-27T03:04:46;2.08;;;1.58;;
63218;SDS011;49320;52.512;13.448;2023-02-27T03:10:02;1.67;;;1.42;;
63218;SDS011;49320;52.512;13.448;2023-02-27T03:12:38;1.98;;;1.30;;
63218;SDS011;49320;52.512;13.448;2023-02-27T03:18:04;2.00;;;1.50;;
63218;SDS011;49320;52.512;13.448;2023-02-27T03:20:40;2.50;;;1.55;;
63218;SDS011;49320;52.512;13.448;2023-02-27T03:23:12;1.80;;;1.30;;
63218;SDS011;49320;52.512;13.448;2023-02-27T03:25:46;2.25;;;1.63;;
63218;SDS011;49320;52.512;13.448;2023-02-27T03:28:17;2.47;;;1.60;;
63218;SDS011;49320;52.512;13.448;2023-02-27T03:33:50;2.45;;;1.80;;
63218;SDS011;49320;52.512;13.448;2023-02-27T03:36:30;2.38;;;1.63;;
63218;SDS011;49320;52.512;13.448;2023-02-27T03:42:14;2.45;;;1.55;;
63218;SDS011;49320;52.512;13.448;2023-02-27T03:48:03;2.08;;;1.50;;
63218;SDS011;49320;52.512;13.448;2023-02-27T03:50:33;2.35;;;1.60;;
63218;SDS011;49320;52.512;13.448;2023-02-27T03:53:06;3.70;;;1.88;;
63218;SDS011;49320;52.512;13.448;2023-02-27T03:55:46;2.45;;;1.48;;
63218;SDS011;49320;52.512;13.448;2023-02-27T03:58:16;2.67;;;1.75;;
63218;SDS011;49320;52.512;13.448;2023-02-27T04:00:43;1.70;;;1.50;;
63218;SDS011;49320;52.512;13.448;2023-02-27T04:03:10;2.92;;;1.60;;
63218;SDS011;49320;52.512;13.448;2023-02-27T04:05:38;3.30;;;1.60;;
63218;SDS011;49320;52.512;13.448;2023-02-27T04:08:13;2.45;;;1.67;;
63218;SDS011;49320;52.512;13.448;2023-02-27T04:11:18;2.22;;;1.90;;
63218;SDS011;49320;52.512;13.448;2023-02-27T04:14:12;2.25;;;1.52;;
63218;SDS011;49320;52.512;13.448;2023-02-27T04:17:13;2.47;;;1.63;;
63218;SDS011;49320;52.512;13.448;2023-02-27T04:19:57;2.88;;;1.75;;
63218;SDS011;49320;52.512;13.448;2023-02-27T04:22:54;3.08;;;1.95;;
63218;SDS011;49320;52.512;13.448;2023-02-27T04:25:35;2.58;;;1.50;;
63218;SDS011;49320;52.512;13.448;2023-02-27T04:28:26;2.58;;;1.67;;
63218;SDS011;49320;52.512;13.448;2023-02-27T04:31:26;3.92;;;1.73;;
63218;SDS011;49320;52.512;13.448;2023-02-27T04:34:10;2.75;;;1.70;;
63218;SDS011;49320;52.512;13.448;2023-02-27T04:36:57;2.72;;;1.80;;
63218;SDS011;49320;52.512;13.448;2023-02-27T04:42:31;1.88;;;1.67;;
63218;SDS011;49320;52.512;13.448;2023-02-27T04:45:05;3.47;;;2.00;;
63218;SDS011;49320;52.512;13.448;2023-02-27T04:47:46;2.80;;;1.77;;
63218;SDS011;49320;52.512;13.448;2023-02-27T04:50:22;3.47;;;2.00;;
63218;SDS011;49320;52.512;13.448;2023-02-27T04:53:02;3.45;;;2.20;;
63218;SDS011;49320;52.512;13.448;2023-02-27T04:55:48;3.45;;;2.05;;
63218;SDS011;49320;52.512;13.448;2023-02-27T04:58:24;2.83;;;1.90;;
63218;SDS011;49320;52.512;13.448;2023-02-27T05:00:58;2.47;;;2.00;;
63218;SDS011;49320;52.512;13.448;2023-02-27T05:03:37;2.70;;;1.90;;
63218;SDS011;49320;52.512;13.448;2023-02-27T05:06:11;2.45;;;1.75;;
63218;SDS011;49320;52.512;13.448;2023-02-27T05:08:47;2.85;;;2.10;;
63218;SDS011;49320;52.512;13.448;2023-02-27T05:14:27;2.08;;;1.58;;
63218;SDS011;49320;52.512;13.448;2023-02-27T05:17:03;2.90;;;1.80;;
63218;SDS011;49320;52.512;13.448;2023-02-27T05:19:37;1.95;;;1.65;;
63218;SDS011;49320;52.512;13.448;2023-02-27T05:22:26;3.13;;;2.13;;
63218;SDS011;49320;52.512;13.448;2023-02-27T05:28:12;2.80;;;1.95;;
63218;SDS011;49320;52.512;13.448;2023-02-27T05:30:50;4.40;;;2.22;;
63218;SDS011;49320;52.512;13.448;2023-02-27T05:33:32;3.70;;;2.30;;
63218;SDS011;49320;52.512;13.448;2023-02-27T05:36:17;2.58;;;2.15;;
63218;SDS011;49320;52.512;13.448;2023-02-27T05:38:57;2.63;;;1.90;;
63218;SDS011;49320;52.512;13.448;2023-02-27T05:41:32;3.88;;;2.30;;
63218;SDS011;49320;52.512;13.448;2023-02-27T05:46:43;3.25;;;1.80;;
63218;SDS011;49320;52.512;13.448;2023-02-27T05:49:35;2.88;;;2.08;;
63218;SDS011;49320;52.512;13.448;2023-02-27T05:52:11;2.97;;;2.13;;
63218;SDS011;49320;52.512;13.448;2023-02-27T05:54:48;3.72;;;2.08;;
63218;SDS011;49320;52.512;13.448;2023-02-27T05:57:27;4.07;;;2.05;;
63218;SDS011;49320;52.512;13.448;2023-02-27T06:00:10;3.38;;;2.30;;
63218;SDS011;49320;52.512;13.448;2023-02-27T06:02:53;2.92;;;2.33;;
63218;SDS011;49320;52.512;13.448;2023-02-27T06:05:20;3.38;;;2.38;;
63218;SDS011;49320;52.512;13.448;2023-02-27T06:07:49;4.90;;;2.72;;
63218;SDS011;49320;52.512;13.448;2023-02-27T06:10:17;3.72;;;2.25;;
63218;SDS011;49320;52.512;13.448;2023-02-27T06:12:46;4.22;;;2.20;;
63218;SDS011;49320;52.512;13.448;2023-02-27T06:15:13;3.22;;;2.10;;
63218;SDS011;49320;52.512;13.448;2023-02-27T06:17:42;3.17;;;2.38;;
63218;SDS011;49320;52.512;13.448;2023-02-27T06:20:09;3.88;;;2.30;;
63218;SDS011;49320;52.512;13.448;2023-02-27T06:22:37;4.13;;;2.72;;
63218;SDS011;49320;52.512;13.448;2023-02-27T06:25:04;4.05;;;2.75;;
63218;SDS011;49320;52.512;13.448;2023-02-27T06:27:31;4.00;;;2.50;;
63218;SDS011;49320;52.512;13.448;2023-02-27T06:29:58;4.72;;;2.55;;
63218;SDS011;49320;52.512;13.448;2023-02-27T06:32:25;4.70;;;2.85;;
63218;SDS011;49320;52.512;13.448;2023-02-27T06:34:51;3.70;;;2.50;;
63218;SDS011;49320;52.512;13.448;2023-02-27T06:37:18;3.50;;;2.20;;
63218;SDS011;49320;52.512;13.448;2023-02-27T06:39:47;3.70;;;2.65;;
63218;SDS011;49320;52.512;13.448;2023-02-27T06:42:13;3.63;;;2.60;;
63218;SDS011;49320;52.512;13.448;2023-02-27T06:44:41;3.63;;;2.33;;
63218;SDS011;49320;52.512;13.448;2023-02-27T06:47:08;4.78;;;2.60;;
63218;SDS011;49320;52.512;13.448;2023-02-27T06:49:34;5.25;;;3.05;;
63218;SDS011;49320;52.512;13.448;2023-02-27T06:52:01;4.22;;;2.55;;
63218;SDS011;49320;52.512;13.448;2023-02-27T06:54:28;3.50;;;2.40;;
63218;SDS011;49320;52.512;13.448;2023-02-27T06:56:55;3.97;;;2.60;;
63218;SDS011;49320;52.512;13.448;2023-02-27T06:59:22;4.40;;;2.75;;
63218;SDS011;49320;52.512;13.448;2023-02-27T07:01:49;3.15;;;2.15;;
63218;SDS011;49320;52.512;13.448;2023-02-27T07:04:16;4.00;;;2.55;;
63218;SDS011;49320;52.512;13.448;2023-02-27T07:06:43;3.10;;;2.17;;
63218;SDS011;49320;52.512;13.448;2023-02-27T07:09:30;2.85;;;2.10;;
63218;SDS011;49320;52.512;13.448;2023-02-27T07:11:56;4.18;;;2.35;;
63218;SDS011;49320;52.512;13.448;2023-02-27T07:14:23;4.05;;;2.55;;
63218;SDS011;49320;52.512;13.448;2023-02-27T07:16:50;6.00;;;2.97;;
63218;SDS011;49320;52.512;13.448;2023-02-27T07:19:22;4.88;;;2.92;;
63218;SDS011;49320;52.512;13.448;2023-02-27T07:21:49;4.13;;;2.80;;
63218;SDS011;49320;52.512;13.448;2023-02-27T07:24:16;3.20;;;2.60;;
63218;SDS011;49320;52.512;13.448;2023-02-27T07:26:44;3.97;;;2.80;;
63218;SDS011;49320;52.512;13.448;2023-02-27T07:29:10;3.75;;;2.95;;
63218;SDS011;49320;52.512;13.448;2023-02-27T07:31:40;3.95;;;2.88;;
63218;SDS011;49320;52.512;13.448;2023-02-27T07:34:06;4.05;;;2.80;;
63218;SDS011;49320;52.512;13.448;2023-02-27T07:36:37;5.07;;;2.90;;
63218;SDS011;49320;52.512;13.448;2023-02-27T07:39:04;4.05;;;2.60;;
63218;SDS011;49320;52.512;13.448;2023-02-27T07:41:33;4.85;;;2.53;;
63218;SDS011;49320;52.512;13.448;2023-02-27T07:44:00;5.18;;;2.50;;
63218;SDS011;49320;52.512;13.448;2023-02-27T07:46:27;4.32;;;2.28;;
63218;SDS011;49320;52.512;13.448;2023-02-27T07:48:54;3.47;;;2.60;;
63218;SDS011;49320;52.512;13.448;2023-02-27T07:51:21;3.97;;;2.55;;
63218;SDS011;49320;52.512;13.448;2023-02-27T07:53:48;4.38;;;2.70;;
63218;SDS011;49320;52.512;13.448;2023-02-27T07:56:15;4.65;;;2.88;;
63218;SDS011;49320;52.512;13.448;2023-02-27T07:58:41;4.70;;;2.78;;
63218;SDS011;49320;52.512;13.448;2023-02-27T08:01:08;9.07;;;2.78;;
63218;SDS011;49320;52.512;13.448;2023-02-27T08:03:35;4.03;;;2.53;;
63218;SDS011;49320;52.512;13.448;2023-02-27T08:06:02;5.05;;;2.95;;
63218;SDS011;49320;52.512;13.448;2023-02-27T08:08:28;5.10;;;3.03;;
63218;SDS011;49320;52.512;13.448;2023-02-27T08:10:55;9.32;;;3.08;;
63218;SDS011;49320;52.512;13.448;2023-02-27T08:13:22;4.22;;;2.65;;
63218;SDS011;49320;52.512;13.448;2023-02-27T08:16:09;5.03;;;3.05;;
63218;SDS011;49320;52.512;13.448;2023-02-27T08:18:36;4.35;;;3.17;;
63218;SDS011;49320;52.512;13.448;2023-02-27T08:21:04;4.63;;;2.70;;
63218;SDS011;49320;52.512;13.448;2023-02-27T08:23:31;3.85;;;2.50;;
63218;SDS011;49320;52.512;13.448;2023-02-27T08:26:00;4.13;;;2.88;;
63218;SDS011;49320;52.512;13.448;2023-02-27T08:28:28;5.07;;;2.92;;
63218;SDS011;49320;52.512;13.448;2023-02-27T08:30:55;5.03;;;3.35;;
63218;SDS011;49320;52.512;13.448;2023-02-27T08:33:22;5.78;;;3.03;;
63218;SDS011;49320;52.512;13.448;2023-02-27T08:35:49;6.82;;;3.33;;
63218;SDS011;49320;52.512;13.448;2023-02-27T08:38:16;5.85;;;3.55;;
63218;SDS011;49320;52.512;13.448;2023-02-27T08:40:43;4.43;;;3.38;;
63218;SDS011;49320;52.512;13.448;2023-02-27T08:43:10;4.95;;;3.35;;
63218;SDS011;49320;52.512;13.448;2023-02-27T08:45:37;5.00;;;3.20;;
63218;SDS011;49320;52.512;13.448;2023-02-27T08:48:04;4.00;;;3.08;;
63218;SDS011;49320;52.512;13.448;2023-02-27T08:50:31;4.60;;;3.30;;
63218;SDS011;49320;52.512;13.448;2023-02-27T08:52:57;6.50;;;3.53;;
63218;SDS011;49320;52.512;13.448;2023-02-27T08:55:24;4.55;;;3.08;;
63218;SDS011;49320;52.512;13.448;2023-02-27T08:57:51;5.18;;;3.35;;
63218;SDS011;49320;52.512;13.448;2023-02-27T09:00:18;4.43;;;3.05;;
63218;SDS011;49320;52.512;13.448;2023-02-27T09:02:46;7.07;;;3.40;;
63218;SDS011;49320;52.512;13.448;2023-02-27T09:05:13;5.38;;;3.08;;
63218;SDS011;49320;52.512;13.448;2023-02-27T09:07:39;5.00;;;3.45;;
63218;SDS011;49320;52.512;13.448;2023-02-27T09:10:07;5.55;;;3.38;;
63218;SDS011;49320;52.512;13.448;2023-02-27T09:12:35;5.32;;;2.97;;
63218;SDS011;49320;52.512;13.448;2023-02-27T09:15:02;3.83;;;2.90;;
63218;SDS011;49320;52.512;13.448;2023-02-27T09:17:31;5.03;;;3.58;;
63218;SDS011;49320;52.512;13.448;2023-02-27T09:19:58;4.63;;;3.50;;
63218;SDS011;49320;52.512;13.448;2023-02-27T09:22:25;5.93;;;3.67;;
63218;SDS011;49320;52.512;13.448;2023-02-27T09:24:52;4.80;;;2.97;;
63218;SDS011;49320;52.512;13.448;2023-02-27T09:27:19;5.65;;;3.78;;
63218;SDS011;49320;52.512;13.448;2023-02-27T09:29:45;7.35;;;3.67;;
63218;SDS011;49320;52.512;13.448;2023-02-27T09:32:14;6.30;;;3.60;;
63218;SDS011;49320;52.512;13.448;2023-02-27T09:34:41;5.70;;;3.20;;
63218;SDS011;49320;52.512;13.448;2023-02-27T09:37:08;5.43;;;3.33;;
63218;SDS011;49320;52.512;13.448;2023-02-27T09:39:34;4.38;;;2.90;;
63218;SDS011;49320;52.512;13.448;2023-02-27T09:42:05;4.07;;;2.92;;
63218;SDS011;49320;52.512;13.448;2023-02-27T09:44:49;4.40;;;3.08;;
63218;SDS011;49320;52.512;13.448;2023-02-27T09:52:32;5.18;;;3.75;;
63218;SDS011;49320;52.512;13.448;2023-02-27T09:55:09;6.10;;;3.42;;
63218;SDS011;49320;52.512;13.448;2023-02-27T09:57:46;5.03;;;3.40;;
63218;SDS011;49320;52.512;13.448;2023-02-27T10:00:37;5.22;;;3.58;;
63218;SDS011;49320;52.512;13.448;2023-02-27T10:03:47;6.22;;;3.28;;
63218;SDS011;49320;52.512;13.448;2023-02-27T10:06:43;5.18;;;3.30;;
63218;SDS011;49320;52.512;13.448;2023-02-27T10:09:34;7.13;;;3.10;;
63218;SDS011;49320;52.512;13.448;2023-02-27T10:15:19;5.97;;;2.78;;
63218;SDS011;49320;52.512;13.448;2023-02-27T10:18:15;5.90;;;3.55;;
63218;SDS011;49320;52.512;13.448;2023-02-27T10:20:54;7.30;;;3.28;;
63218;SDS011;49320;52.512;13.448;2023-02-27T10:23:31;3.97;;;2.80;;
63218;SDS011;49320;52.512;13.448;2023-02-27T10:26:06;4.47;;;3.22;;
63218;SDS011;49320;52.512;13.448;2023-02-27T10:28:47;4.68;;;2.80;;
63218;SDS011;49320;52.512;13.448;2023-02-27T10:31:16;4.47;;;2.60;;
63218;SDS011;49320;52.512;13.448;2023-02-27T10:33:51;9.02;;;3.00;;
63218;SDS011;49320;52.512;13.448;2023-02-27T10:36:18;7.05;;;2.80;;
63218;SDS011;49320;52.512;13.448;2023-02-27T10:39:00;4.05;;;2.45;;
63218;SDS011;49320;52.512;13.448;2023-02-27T10:41:33;3.78;;;2.55;;
63218;SDS011;49320;52.512;13.448;2023-02-27T10:44:01;5.82;;;3.45;;
63218;SDS011;49320;52.512;13.448;2023-02-27T10:46:29;3.58;;;2.83;;
63218;SDS011;49320;52.512;13.448;2023-02-27T10:49:01;5.03;;;2.33;;
63218;SDS011;49320;52.512;13.448;2023-02-27T10:51:40;5.68;;;2.70;;
63218;SDS011;49320;52.512;13.448;2023-02-27T10:54:12;2.75;;;2.20;;
63218;SDS011;49320;52.512;13.448;2023-02-27T10:56:55;4.00;;;2.10;;
63218;SDS011;49320;52.512;13.448;2023-02-27T10:59:35;3.03;;;1.90;;
63218;SDS011;49320;52.512;13.448;2023-02-27T11:04:45;3.20;;;1.92;;
63218;SDS011;49320;52.512;13.448;2023-02-27T11:10:20;3.53;;;2.00;;
63218;SDS011;49320;52.512;13.448;2023-02-27T11:13:03;3.63;;;1.92;;
63218;SDS011;49320;52.512;13.448;2023-02-27T11:16:00;4.13;;;1.48;;
63218;SDS011;49320;52.512;13.448;2023-02-27T11:18:48;2.22;;;1.67;;
63218;SDS011;49320;52.512;13.448;2023-02-27T11:21:21;3.72;;;1.75;;
63218;SDS011;49320;52.512;13.448;2023-02-27T11:23:54;3.10;;;1.70;;
63218;SDS011;49320;52.512;13.448;2023-02-27T11:26:30;2.55;;;1.45;;
63218;SDS011;49320;52.512;13.448;2023-02-27T11:29:12;2.28;;;1.52;;
63218;SDS011;49320;52.512;13.448;2023-02-27T11:31:47;1.80;;;1.27;;
63218;SDS011;49320;52.512;13.448;2023-02-27T11:34:26;1.83;;;1.35;;
63218;SDS011;49320;52.512;13.448;2023-02-27T11:37:06;2.90;;;1.88;;
63218;SDS011;49320;52.512;13.448;2023-02-27T11:39:50;1.73;;;1.17;;
63218;SDS011;49320;52.512;13.448;2023-02-27T11:42:28;2.47;;;1.30;;
63218;SDS011;49320;52.512;13.448;2023-02-27T11:45:00;2.65;;;1.55;;
63218;SDS011;49320;52.512;13.448;2023-02-27T11:48:08;5.93;;;3.78;;
63218;SDS011;49320;52.512;13.448;2023-02-27T11:51:04;3.30;;;2.17;;
63218;SDS011;49320;52.512;13.448;2023-02-27T11:54:09;1.95;;;1.40;;
63218;SDS011;49320;52.512;13.448;2023-02-27T11:56:59;3.90;;;1.58;;
63218;SDS011;49320;52.512;13.448;2023-02-27T11:59:39;4.35;;;1.88;;
63218;SDS011;49320;52.512;13.448;2023-02-27T12:05:14;3.38;;;1.52;;
63218;SDS011;49320;52.512;13.448;2023-02-27T12:07:54;4.70;;;1.45;;
63218;SDS011;49320;52.512;13.448;2023-02-27T12:13:40;1.80;;;1.20;;
63218;SDS011;49320;52.512;13.448;2023-02-27T12:16:16;3.15;;;1.40;;
63218;SDS011;49320;52.512;13.448;2023-02-27T12:19:12;3.08;;;1.50;;
63218;SDS011;49320;52.512;13.448;2023-02-27T12:22:01;3.00;;;1.60;;
63218;SDS011;49320;52.512;13.448;2023-02-27T12:27:43;2.35;;;1.38;;
63218;SDS011;49320;52.512;13.448;2023-02-27T12:30:30;2.35;;;1.45;;
63218;SDS011;49320;52.512;13.448;2023-02-27T12:33:16;1.52;;;1.00;;
63218;SDS011;49320;52.512;13.448;2023-02-27T12:35:58;1.45;;;0.95;;
63218;SDS011;49320;52.512;13.448;2023-02-27T12:38:28;1.55;;;1.00;;
63218;SDS011;49320;52.512;13.448;2023-02-27T12:41:00;1.63;;;1.20;;
63218;SDS011;49320;52.512;13.448;2023-02-27T12:43:51;2.30;;;1.05;;
63218;SDS011;49320;52.512;13.448;2023-02-27T12:46:52;1.33;;;1.00;;
63218;SDS011;49320;52.512;13.448;2023-02-27T12:49:39;1.58;;;0.82;;
63218;SDS011;49320;52.512;13.448;2023-02-27T12:55:22;1.40;;;1.02;;
63218;SDS011;49320;52.512;13.448;2023-02-27T12:58:04;1.83;;;1.10;;
63218;SDS011;49320;52.512;13.448;2023-02-27T13:03:47;0.80;;;0.70;;
63218;SDS011;49320;52.512;13.448;2023-02-27T13:06:32;1.75;;;0.93;;
63218;SDS011;49320;52.512;13.448;2023-02-27T13:09:32;2.03;;;1.00;;
63218;SDS011;49320;52.512;13.448;2023-02-27T13:12:22;1.60;;;0.80;;
63218;SDS011;49320;52.512;13.448;2023-02-27T13:15:25;2.10;;;1.05;;
63218;SDS011;49320;52.512;13.448;2023-02-27T13:20:47;1.92;;;1.10;;
63218;SDS011;49320;52.512;13.448;2023-02-27T13:26:00;2.10;;;1.13;;
63218;SDS011;49320;52.512;13.448;2023-02-27T13:28:43;2.10;;;1.00;;
63218;SDS011;49320;52.512;13.448;2023-02-27T13:31:14;0.85;;;0.60;;
63218;SDS011;49320;52.512;13.448;2023-02-27T13:44:56;0.98;;;0.73;;
63218;SDS011;49320;52.512;13.448;2023-02-27T13:47:40;1.45;;;0.77;;
63218;SDS011;49320;52.512;13.448;2023-02-27T13:52:46;1.42;;;1.10;;
63218;SDS011;49320;52.512;13.448;2023-02-27T13:55:30;2.10;;;0.90;;
63218;SDS011;49320;52.512;13.448;2023-02-27T13:58:02;2.30;;;1.40;;
63218;SDS011;49320;52.512;13.448;2023-02-27T14:00:32;4.20;;;1.20;;
63218;SDS011;49320;52.512;13.448;2023-02-27T14:03:07;4.55;;;2.03;;
63218;SDS011;49320;52.512;13.448;2023-02-27T14:05:51;1.23;;;0.90;;
63218;SDS011;49320;52.512;13.448;2023-02-27T14:08:29;2.10;;;1.17;;
63218;SDS011;49320;52.512;13.448;2023-02-27T14:11:15;3.03;;;1.40;;
63218;SDS011;49320;52.512;13.448;2023-02-27T14:24:36;2.35;;;1.77;;
63218;SDS011;49320;52.512;13.448;2023-02-27T14:27:23;1.65;;;1.20;;
63218;SDS011;49320;52.512;13.448;2023-02-27T14:29:55;1.13;;;1.02;;
63218;SDS011;49320;52.512;13.448;2023-02-27T14:32:36;1.83;;;1.10;;
63218;SDS011;49320;52.512;13.448;2023-02-27T14:35:04;1.67;;;1.13;;
63218;SDS011;49320;52.512;13.448;2023-02-27T14:37:32;1.42;;;0.98;;
63218;SDS011;49320;52.512;13.448;2023-02-27T14:40:01;1.27;;;0.80;;
63218;SDS011;49320;52.512;13.448;2023-02-27T14:42:42;1.30;;;0.70;;
63218;SDS011;49320;52.512;13.448;2023-02-27T14:45:35;1.45;;;0.85;;
63218;SDS011;49320;52.512;13.448;2023-02-27T14:48:04;1.80;;;1.00;;
63218;SDS011;49320;52.512;13.448;2023-02-27T14:50:35;1.05;;;0.77;;
63218;SDS011;49320;52.512;13.448;2023-02-27T14:53:19;1.02;;;0.70;;
63218;SDS011;49320;52.512;13.448;2023-02-27T14:55:56;1.67;;;0.95;;
63218;SDS011;49320;52.512;13.448;2023-02-27T14:58:24;1.52;;;0.98;;
63218;SDS011;49320;52.512;13.448;2023-02-27T15:00:57;1.55;;;0.80;;
63218;SDS011;49320;52.512;13.448;2023-02-27T15:03:34;2.05;;;0.88;;
63218;SDS011;49320;52.512;13.448;2023-02-27T15:06:18;3.60;;;1.00;;
63218;SDS011;49320;52.512;13.448;2023-02-27T15:09:15;1.10;;;0.98;;
63218;SDS011;49320;52.512;13.448;2023-02-27T15:11:53;1.38;;;0.80;;
63218;SDS011;49320;52.512;13.448;2023-02-27T15:14:30;2.55;;;0.93;;
63218;SDS011;49320;52.512;13.448;2023-02-27T15:17:02;0.70;;;0.70;;
63218;SDS011;49320;52.512;13.448;2023-02-27T15:19:48;1.95;;;1.00;;
63218;SDS011;49320;52.512;13.448;2023-02-27T15:22:20;1.33;;;0.90;;
63218;SDS011;49320;52.512;13.448;2023-02-27T15:25:04;0.82;;;0.60;;
63218;SDS011;49320;52.512;13.448;2023-02-27T15:27:33;0.80;;;0.75;;
63218;SDS011;49320;52.512;13.448;2023-02-27T15:30:02;1.40;;;0.90;;
63218;SDS011;49320;52.512;13.448;2023-02-27T15:32:40;1.48;;;0.90;;
63218;SDS011;49320;52.512;13.448;2023-02-27T15:35:13;1.17;;;0.80;;
63218;SDS011;49320;52.512;13.448;2023-02-27T15:37:57;0.95;;;0.77;;
63218;SDS011;49320;52.512;13.448;2023-02-27T15:40:26;0.75;;;0.70;;
63218;SDS011;49320;52.512;13.448;2023-02-27T15:42:55;2.25;;;0.80;;
63218;SDS011;49320;52.512;13.448;2023-02-27T15:45:28;1.30;;;0.70;;
63218;SDS011;49320;52.512;13.448;2023-02-27T15:48:01;1.23;;;1.10;;
63218;SDS011;49320;52.512;13.448;2023-02-27T15:50:33;0.90;;;0.80;;
63218;SDS011;49320;52.512;13.448;2023-02-27T15:55:33;1.85;;;0.95;;
63218;SDS011;49320;52.512;13.448;2023-02-27T15:58:23;1.42;;;1.20;;
63218;SDS011;49320;52.512;13.448;2023-02-27T16:00:56;3.42;;;1.38;;
63218;SDS011;49320;52.512;13.448;2023-02-27T16:03:43;2.67;;;1.10;;
63218;SDS011;49320;52.512;13.448;2023-02-27T16:06:24;1.15;;;0.90;;
63218;SDS011;49320;52.512;13.448;2023-02-27T16:08:59;1.48;;;1.20;;
63218;SDS011;49320;52.512;13.448;2023-02-27T16:11:46;1.58;;;0.90;;
63218;SDS011;49320;52.512;13.448;2023-02-27T16:17:23;1.90;;;1.23;;
63218;SDS011;49320;52.512;13.448;2023-02-27T16:19:57;1.63;;;1.02;;
63218;SDS011;49320;52.512;13.448;2023-02-27T16:22:27;1.40;;;0.85;;
63218;SDS011;49320;52.512;13.448;2023-02-27T16:25:06;1.83;;;1.08;;
63218;SDS011;49320;52.512;13.448;2023-02-27T16:27:44;0.80;;;0.80;;
63218;SDS011;49320;52.512;13.448;2023-02-27T16:30:15;1.95;;;0.90;;
63218;SDS011;49320;52.512;13.448;2023-02-27T16:32:42;1.17;;;0.82;;
63218;SDS011;49320;52.512;13.448;2023-02-27T16:35:16;1.70;;;0.90;;
63218;SDS011;49320;52.512;13.448;2023-02-27T16:37:46;1.67;;;0.95;;
63218;SDS011;49320;52.512;13.448;2023-02-27T16:42:48;2.17;;;1.00;;
63218;SDS011;49320;52.512;13.448;2023-02-27T16:45:18;1.30;;;0.95;;
63218;SDS011;49320;52.512;13.448;2023-02-27T16:47:48;1.90;;;0.93;;
63218;SDS011;49320;52.512;13.448;2023-02-27T16:50:29;1.70;;;0.88;;
63218;SDS011;49320;52.512;13.448;2023-02-27T16:53:00;1.88;;;1.20;;
63218;SDS011;49320;52.512;13.448;2023-02-27T16:55:27;1.30;;;0.95;;
63218;SDS011;49320;52.512;13.448;2023-02-27T16:57:57;1.67;;;1.05;;
63218;SDS011;49320;52.512;13.448;2023-02-27T17:00:24;1.45;;;1.00;;
63218;SDS011;49320;52.512;13.448;2023-02-27T17:02:51;1.00;;;0.90;;
63218;SDS011;49320;52.512;13.448;2023-02-27T17:05:18;1.92;;;1.20;;
63218;SDS011;49320;52.512;13.448;2023-02-27T17:07:45;3.35;;;1.00;;
63218;SDS011;49320;52.512;13.448;2023-02-27T17:10:15;1.38;;;1.13;;
63218;SDS011;49320;52.512;13.448;2023-02-27T17:12:47;1.23;;;1.00;;
63218;SDS011;49320;52.512;13.448;2023-02-27T17:15:14;2.17;;;1.35;;